Time;durP1;ratioP1;P1;durP2;ratioP2;P2;SDS_P1;SDS_P2;PMS_P1;PMS_P2;Temp;Humidity;BMP_temperature;BMP_pressure;BME280_temperature;BME280_humidity;BME280_pressure;Samples;Min_cycle;Max_cycle;Signal;HPM_P1;HPM_P2
2022/10/23 00:01:20;;;;;;;6.47;3.53;;;;;;;13.51;100.00;100071.63;5011137;28;20105;-65
2022/10/23 00:03:46;;;;;;;8.15;3.63;;;;;;;13.46;100.00;100062.94;5012223;28;20389;-65
2022/10/23 00:06:13;;;;;;;6.82;3.13;;;;;;;13.47;100.00;100062.00;5012155;28;20025;-63
2022/10/23 00:08:39;;;;;;;7.40;3.33;;;;;;;13.47;100.00;100068.22;5011694;28;20172;-63
2022/10/23 00:11:10;;;;;;;5.47;3.47;;;;;;;13.42;100.00;100064.00;5011436;28;20610;-64
2022/10/23 00:13:36;;;;;;;6.50;3.25;;;;;;;13.44;100.00;100056.78;5011382;28;20022;-64
2022/10/23 00:16:02;;;;;;;5.85;3.45;;;;;;;13.42;100.00;100061.31;5011846;28;20389;-63
2022/10/23 00:18:27;;;;;;;7.85;3.28;;;;;;;13.42;100.00;100053.31;5011975;28;20065;-64
2022/10/23 00:20:53;;;;;;;7.07;3.47;;;;;;;13.40;100.00;100049.81;5011988;28;20029;-63
2022/10/23 00:23:18;;;;;;;5.57;3.97;;;;;;;13.41;100.00;100040.91;5012047;28;20026;-64
2022/10/23 00:25:43;;;;;;;6.65;3.00;;;;;;;13.42;100.00;100035.47;5011919;28;20053;-63
2022/10/23 00:28:09;;;;;;;4.70;3.30;;;;;;;13.42;100.00;100042.63;5011947;28;20029;-64
2022/10/23 00:30:35;;;;;;;4.93;2.60;;;;;;;13.41;100.00;100041.75;5012159;28;20060;-65
2022/10/23 00:33:00;;;;;;;6.28;2.92;;;;;;;13.43;100.00;100044.34;5011926;28;20022;-65
2022/10/23 00:35:26;;;;;;;5.50;2.92;;;;;;;13.42;100.00;100042.63;5011891;28;20038;-65
2022/10/23 00:37:51;;;;;;;5.32;2.97;;;;;;;13.43;100.00;100039.00;5018364;28;20037;-64
2022/10/23 00:40:16;;;;;;;5.75;2.72;;;;;;;13.41;100.00;100047.09;5019324;28;20124;-64
2022/10/23 00:42:42;;;;;;;6.55;4.20;;;;;;;13.38;100.00;100049.06;5011770;28;20030;-64
2022/10/23 00:45:33;;;;;;;4.63;3.15;;;;;;;13.33;100.00;100049.22;5016477;28;20029;-64
2022/10/23 00:48:02;;;;;;;6.15;2.97;;;;;;;13.30;100.00;100045.81;5020585;28;20065;-64
2022/10/23 00:50:31;;;;;;;4.80;2.50;;;;;;;13.27;100.00;100040.63;4999794;28;20465;-64
2022/10/23 00:53:01;;;;;;;5.80;2.70;;;;;;;13.27;100.00;100037.94;5011618;28;20022;-64
2022/10/23 00:55:27;;;;;;;5.60;2.65;;;;;;;13.26;100.00;100041.56;5011298;28;20118;-63
2022/10/23 00:57:52;;;;;;;5.65;2.25;;;;;;;13.30;100.00;100043.16;5011614;28;20029;-64
2022/10/23 01:00:45;;;;;;;4.38;2.80;;;;;;;13.27;100.00;100037.94;5011355;28;20079;-63
2022/10/23 01:03:10;;;;;;;6.78;2.70;;;;;;;13.34;100.00;100039.41;4998911;28;20018;-63
2022/10/23 01:05:51;;;;;;;6.55;2.92;;;;;;;13.31;100.00;100036.88;5012016;28;20473;-63
2022/10/23 01:08:55;;;;;;;4.20;2.67;;;;;;;13.29;100.00;100036.06;5011921;28;20026;-64
2022/10/23 01:11:46;;;;;;;5.28;3.55;;;;;;;13.27;100.00;100040.63;5011410;28;20481;-63
2022/10/23 01:14:26;;;;;;;5.28;2.80;;;;;;;13.26;100.00;100038.88;5016064;28;20048;-62
2022/10/23 01:17:10;;;;;;;4.35;2.20;;;;;;;13.21;100.00;100029.25;5016432;28;20072;-64
2022/10/23 01:19:35;;;;;;;;;;;;;;;13.18;100.00;100037.41;5016883;28;20036;-64
2022/10/23 01:22:09;;;;;;;4.25;2.60;;;;;;;13.17;100.00;100035.69;5026864;28;20000;-64
2022/10/23 01:24:52;;;;;;;5.85;3.10;;;;;;;13.14;100.00;100033.16;5036472;28;20037;-64
2022/10/23 01:27:25;;;;;;;8.75;3.00;;;;;;;13.13;100.00;100015.38;5036208;28;20495;-64
2022/10/23 01:30:07;;;;;;;7.00;3.33;;;;;;;13.16;100.00;100019.72;5036345;28;20029;-64
2022/10/23 01:32:46;;;;;;;6.95;3.03;;;;;;;13.20;100.00;100016.84;5015779;28;20026;-64
2022/10/23 01:35:19;;;;;;;4.13;2.70;;;;;;;13.17;100.00;100016.97;5016857;28;20474;-64
2022/10/23 01:37:50;;;;;;;4.30;2.65;;;;;;;13.06;100.00;100016.56;5016670;28;20036;-63
2022/10/23 01:40:49;;;;;;;4.07;2.30;;;;;;;12.99;100.00;100023.06;5016275;28;20396;-64
2022/10/23 01:43:24;;;;;;;5.70;2.53;;;;;;;13.03;100.00;100019.34;5001475;28;20042;-64
2022/10/23 01:45:59;;;;;;;7.47;3.20;;;;;;;13.08;100.00;100012.03;5031358;28;20033;-64
2022/10/23 01:48:28;;;;;;;7.70;2.65;;;;;;;13.14;100.00;100009.09;5027220;28;20032;-64
2022/10/23 01:51:00;;;;;;;6.82;2.70;;;;;;;13.16;100.00;100009.88;5016130;28;20026;-63
2022/10/23 01:53:30;;;;;;;6.05;2.83;;;;;;;13.21;100.00;99999.03;5015587;28;20735;-64
2022/10/23 01:55:56;;;;;;;8.27;3.60;;;;;;;13.21;100.00;100001.69;5014725;28;20025;-64
2022/10/23 01:58:27;;;;;;;6.47;2.88;;;;;;;13.22;100.00;100008.75;5015075;28;20021;-64
2022/10/23 02:00:58;;;;;;;5.13;2.83;;;;;;;13.24;100.00;99997.06;5014447;28;20034;-63
2022/10/23 02:03:29;;;;;;;10.73;3.15;;;;;;;13.27;100.00;99996.09;5014342;28;20435;-63
2022/10/23 02:05:54;;;;;;;7.22;2.90;;;;;;;13.26;100.00;99993.47;5015998;28;20052;-64
2022/10/23 02:08:20;;;;;;;4.38;3.03;;;;;;;13.24;100.00;99990.88;5015907;28;20473;-64
2022/10/23 02:11:03;;;;;;;7.65;3.28;;;;;;;13.20;100.00;99979.44;5016015;28;20122;-64
2022/10/23 02:13:49;;;;;;;5.88;2.83;;;;;;;13.25;100.00;99973.91;5015410;28;20026;-64
2022/10/23 02:16:31;;;;;;;5.38;3.00;;;;;;;13.24;100.00;99973.03;5014916;28;20030;-64
2022/10/23 02:19:05;;;;;;;4.82;3.28;;;;;;;13.28;100.00;99964.91;5014898;28;20022;-64
2022/10/23 02:21:38;;;;;;;4.65;3.22;;;;;;;13.26;100.00;99962.31;5014794;28;20022;-64
2022/10/23 02:24:33;;;;;;;6.47;3.30;;;;;;;13.26;100.00;99966.75;5014174;28;20401;-63
2022/10/23 02:27:03;;;;;;;10.73;3.22;;;;;;;13.26;100.00;99969.44;5008119;28;20124;-64
2022/10/23 02:29:38;;;;;;;5.32;3.15;;;;;;;13.27;100.00;99968.50;5026194;28;20025;-64
2022/10/23 02:32:05;;;;;;;13.65;5.00;;;;;;;13.23;100.00;99968.63;5035610;28;20338;-64
2022/10/23 02:34:31;;;;;;;5.18;3.13;;;;;;;13.20;100.00;99962.56;5035770;28;20044;-64
2022/10/23 02:36:56;;;;;;;4.28;2.53;;;;;;;13.14;100.00;99974.38;5035191;28;20358;-64
2022/10/23 02:39:25;;;;;;;4.65;2.83;;;;;;;13.01;100.00;99972.31;5035767;28;20374;-64
2022/10/23 02:42:06;;;;;;;4.43;2.45;;;;;;;13.02;100.00;99969.56;5032171;28;20025;-64
2022/10/23 02:44:56;;;;;;;6.18;2.60;;;;;;;13.00;100.00;99971.41;5015457;28;20041;-64
2022/10/23 02:47:40;;;;;;;5.55;2.83;;;;;;;12.95;100.00;99973.41;5014773;28;20464;-64
2022/10/23 02:50:31;;;;;;;4.05;2.67;;;;;;;12.92;100.00;99970.00;4994952;28;20077;-63
2022/10/23 02:53:03;;;;;;;6.78;2.67;;;;;;;12.94;100.00;99969.00;5012812;28;20022;-64
2022/10/23 02:55:37;;;;;;;6.13;3.20;;;;;;;12.96;100.00;99959.09;5015162;28;20040;-64
2022/10/23 02:58:44;;;;;;;9.75;3.35;;;;;;;12.97;100.00;99954.63;5015483;28;20032;-64
2022/10/23 03:01:21;;;;;;;5.53;2.92;;;;;;;12.95;100.00;99936.03;5014923;28;20107;-64
2022/10/23 03:03:53;;;;;;;4.30;3.10;;;;;;;12.95;100.00;99932.47;5014979;28;20038;-64
2022/10/23 03:06:20;;;;;;;6.63;3.10;;;;;;;12.94;100.00;99928.97;5014897;28;20030;-64
2022/10/23 03:08:52;;;;;;;5.55;3.00;;;;;;;12.94;100.00;99928.97;5014475;28;20034;-64
2022/10/23 03:11:18;;;;;;;7.43;3.13;;;;;;;12.94;100.00;99926.28;5014971;28;20030;-64
2022/10/23 03:13:43;;;;;;;5.53;2.85;;;;;;;12.96;100.00;99935.06;5014541;28;20112;-64
2022/10/23 03:16:12;;;;;;;6.53;3.08;;;;;;;13.00;100.00;99938.47;5014349;28;20030;-64
2022/10/23 03:18:37;;;;;;;9.27;3.17;;;;;;;13.06;100.00;99930.25;5014418;28;20033;-64
2022/10/23 03:21:03;;;;;;;7.03;2.92;;;;;;;13.10;100.00;99934.50;5026878;28;20049;-64
2022/10/23 03:23:28;;;;;;;9.15;3.28;;;;;;;13.13;100.00;99931.69;5028851;28;20026;-64
2022/10/23 03:25:54;;;;;;;5.82;2.75;;;;;;;13.19;100.00;99928.78;5013965;28;20564;-64
2022/10/23 03:28:20;;;;;;;5.75;3.22;;;;;;;13.20;100.00;99922.50;5014124;28;20036;-64
2022/10/23 03:30:45;;;;;;;4.15;2.40;;;;;;;13.23;100.00;99929.50;5014099;28;20476;-64
2022/10/23 03:33:11;;;;;;;6.28;3.42;;;;;;;13.28;100.00;99917.66;5013895;28;20188;-64
2022/10/23 03:35:36;;;;;;;6.93;4.30;;;;;;;13.30;100.00;99910.47;5013445;28;20029;-64
2022/10/23 03:38:02;;;;;;;8.88;4.82;;;;;;;13.32;100.00;99913.06;5013804;28;20030;-64
2022/10/23 03:40:27;;;;;;;5.90;4.25;;;;;;;13.36;100.00;99925.34;5028870;28;20025;-64
2022/10/23 03:42:52;;;;;;;7.07;3.25;;;;;;;13.29;100.00;99939.91;5033672;28;20485;-64
2022/10/23 03:45:19;;;;;;;12.75;3.95;;;;;;;13.25;100.00;99933.84;5007471;28;20081;-64
2022/10/23 03:47:44;;;;;;;5.03;2.90;;;;;;;13.26;100.00;99934.72;4997129;28;20026;-64
2022/10/23 03:50:12;;;;;;;6.30;2.70;;;;;;;13.26;100.00;99929.38;5013003;28;20036;-64
2022/10/23 03:52:38;;;;;;;8.63;2.80;;;;;;;13.24;100.00;99938.31;5012407;28;20100;-64
2022/10/23 03:55:04;;;;;;;5.25;2.67;;;;;;;13.22;100.00;99931.31;5012616;28;20125;-64
2022/10/23 03:57:36;;;;;;;4.90;2.50;;;;;;;13.23;100.00;99934.84;5152606;27;20129;-64
2022/10/23 04:00:02;;;;;;;31.42;4.07;;;;;;;13.13;100.00;99940.59;5150037;27;20035;-64
2022/10/23 04:02:28;;;;;;;5.32;3.20;;;;;;;13.12;100.00;99944.22;5150634;27;20018;-63
2022/10/23 04:04:54;;;;;;;5.57;3.25;;;;;;;13.12;100.00;99938.88;5134688;27;20381;-64
2022/10/23 04:07:19;;;;;;;5.82;3.13;;;;;;;13.15;100.00;99937.84;5129541;28;20173;-64
2022/10/23 04:09:45;;;;;;;5.40;3.00;;;;;;;13.27;100.00;99942.66;5129530;28;20114;-63
2022/10/23 04:12:10;;;;;;;23.33;5.78;;;;;;;13.31;100.00;99935.38;5129601;28;20023;-64
2022/10/23 04:14:36;;;;;;;6.57;2.83;;;;;;;13.36;100.00;99936.03;5111144;28;20060;-64
2022/10/23 04:17:01;;;;;;;12.88;3.33;;;;;;;13.39;100.00;99930.56;5129443;28;20058;-64
2022/10/23 04:19:27;;;;;;;6.07;3.20;;;;;;;13.45;100.00;99930.25;5130549;28;20023;-65
2022/10/23 04:21:52;;;;;;;10.18;3.13;;;;;;;13.48;100.00;99935.47;5130156;28;20063;-65
2022/10/23 04:24:17;;;;;;;19.80;3.53;;;;;;;13.51;100.00;99930.84;5129189;28;20031;-65
2022/10/23 04:26:43;;;;;;;5.38;3.20;;;;;;;13.54;100.00;99921.84;5129807;28;20169;-65
2022/10/23 04:29:08;;;;;;;5.40;3.78;;;;;;;13.59;100.00;99933.19;5129721;28;20035;-64
2022/10/23 04:31:34;;;;;;;6.63;2.85;;;;;;;13.56;100.00;99933.34;5130185;28;20031;-65
2022/10/23 04:33:59;;;;;;;9.63;3.45;;;;;;;13.56;100.00;99933.34;5129686;28;20023;-65
2022/10/23 04:36:25;;;;;;;7.50;2.92;;;;;;;13.54;100.00;99928.03;5129340;28;20023;-65
2022/10/23 04:38:52;;;;;;;6.32;2.78;;;;;;;13.48;100.00;99927.44;5130380;28;20035;-65
2022/10/23 04:41:17;;;;;;;4.60;2.80;;;;;;;13.43;100.00;99922.31;5130573;28;20027;-65
2022/10/23 04:43:43;;;;;;;8.40;3.17;;;;;;;13.38;100.00;99918.16;5129507;28;20041;-65
2022/10/23 04:46:08;;;;;;;3.90;2.35;;;;;;;13.32;100.00;99913.06;5129855;28;20423;-64
2022/10/23 04:48:34;;;;;;;5.28;3.13;;;;;;;13.31;100.00;99922.03;5129481;28;20474;-64
2022/10/23 04:51:02;;;;;;;4.93;2.92;;;;;;;13.31;100.00;99914.84;5129738;28;20394;-64
2022/10/23 04:53:28;;;;;;;6.65;2.80;;;;;;;13.29;100.00;99908.75;5129908;28;20497;-65
2022/10/23 04:55:56;;;;;;;4.40;2.88;;;;;;;13.34;100.00;99927.22;5129241;28;20047;-64
2022/10/23 04:58:22;;;;;;;5.22;3.10;;;;;;;13.31;100.00;99924.69;5130103;28;20414;-64
2022/10/23 05:00:49;;;;;;;9.52;3.17;;;;;;;13.40;100.00;99905.56;5130258;28;20047;-65
2022/10/23 05:03:15;;;;;;;8.25;2.55;;;;;;;13.47;100.00;99912.38;5129809;28;20022;-65
2022/10/23 05:05:41;;;;;;;4.85;2.85;;;;;;;13.59;100.00;99917.16;5111134;28;20030;-64
2022/10/23 05:08:08;;;;;;;6.32;3.78;;;;;;;13.56;100.00;99909.28;5121346;28;20031;-64
2022/10/23 05:10:33;;;;;;;5.78;2.97;;;;;;;13.58;100.00;99902.03;5116249;28;20059;-64
2022/10/23 05:12:59;;;;;;;5.38;3.20;;;;;;;13.63;100.00;99905.38;5115448;28;20047;-65
2022/10/23 05:15:24;;;;;;;6.53;2.80;;;;;;;13.63;100.00;99894.66;5115947;28;20063;-65
2022/10/23 05:17:54;;;;;;;5.20;3.08;;;;;;;13.61;100.00;99883.19;5115791;28;20031;-65
2022/10/23 05:20:25;;;;;;;4.65;2.90;;;;;;;13.66;100.00;99897.19;5115649;28;20039;-64
2022/10/23 05:22:54;;;;;;;42.08;5.50;;;;;;;13.67;100.00;99883.78;5115741;28;20104;-65
2022/10/23 05:25:19;;;;;;;5.53;2.40;;;;;;;13.62;100.00;99876.91;5115785;28;20058;-64
2022/10/23 05:27:45;;;;;;;4.72;2.50;;;;;;;13.59;100.00;99879.75;5115871;28;20059;-64
2022/10/23 05:30:11;;;;;;;5.88;3.20;;;;;;;13.53;100.00;99874.66;5115790;28;20106;-65
2022/10/23 05:32:37;;;;;;;7.57;3.03;;;;;;;13.47;100.00;99886.53;5115842;28;20026;-64
2022/10/23 05:35:08;;;;;;;9.88;3.95;;;;;;;13.39;100.00;99874.44;5115667;28;20020;-64
2022/10/23 05:37:37;;;;;;;5.03;2.55;;;;;;;13.36;100.00;99878.09;5116669;28;20024;-65
2022/10/23 05:40:03;;;;;;;5.72;3.03;;;;;;;13.30;100.00;99866.84;5116044;28;20077;-64
2022/10/23 05:42:28;;;;;;;8.20;2.83;;;;;;;13.32;100.00;99875.66;5116206;28;20794;-64
2022/10/23 05:44:54;;;;;;;4.47;2.70;;;;;;;13.28;100.00;99874.09;5115343;28;20114;-64
2022/10/23 05:47:19;;;;;;;5.50;2.92;;;;;;;13.26;100.00;99882.16;5115212;28;20015;-64
2022/10/23 05:49:44;;;;;;;9.40;2.80;;;;;;;13.27;100.00;99889.22;5116106;28;20030;-64
2022/10/23 05:52:13;;;;;;;5.15;2.70;;;;;;;13.27;100.00;99886.56;5115657;28;20028;-65
2022/10/23 05:54:38;;;;;;;5.35;2.63;;;;;;;13.24;100.00;99874.19;5115196;28;20046;-64
2022/10/23 05:57:03;;;;;;;7.85;3.10;;;;;;;13.29;100.00;99865.13;5115244;28;20150;-65
2022/10/23 05:59:29;;;;;;;8.82;2.53;;;;;;;13.27;100.00;99878.56;5115210;28;20115;-64
2022/10/23 06:01:54;;;;;;;5.53;2.70;;;;;;;13.23;100.00;99877.81;5115198;28;20023;-64
2022/10/23 06:04:20;;;;;;;5.32;2.75;;;;;;;13.24;100.00;99874.19;5115010;28;20076;-64
2022/10/23 06:06:45;;;;;;;7.30;2.55;;;;;;;13.18;100.00;99874.47;5115075;28;20103;-64
2022/10/23 06:09:12;;;;;;;6.88;2.75;;;;;;;13.17;100.00;99850.53;5114251;28;20486;-64
2022/10/23 06:11:37;;;;;;;4.50;2.55;;;;;;;13.21;100.00;99863.66;5111953;28;20023;-64
2022/10/23 06:14:02;;;;;;;11.93;2.67;;;;;;;13.23;100.00;99869.81;5114190;28;20022;-64
2022/10/23 06:16:28;;;;;;;5.50;2.55;;;;;;;13.18;100.00;99877.16;5114737;28;20035;-64
2022/10/23 06:18:54;;;;;;;6.95;2.88;;;;;;;13.21;100.00;99865.47;5113580;28;20028;-65
2022/10/23 06:21:20;;;;;;;5.53;3.00;;;;;;;13.28;100.00;99869.59;5104306;28;20499;-65
2022/10/23 06:23:46;;;;;;;13.55;3.30;;;;;;;13.30;100.00;99867.72;5094236;28;20028;-65
2022/10/23 06:26:14;;;;;;;4.72;2.40;;;;;;;13.34;100.00;99863.09;5096690;28;20023;-65
2022/10/23 06:28:40;;;;;;;5.78;2.80;;;;;;;13.36;100.00;99861.25;5094548;28;20023;-64
2022/10/23 06:31:11;;;;;;;6.88;3.00;;;;;;;13.36;100.00;99863.91;5095654;28;20383;-64
2022/10/23 06:33:37;;;;;;;3.92;2.50;;;;;;;13.39;100.00;99867.31;5111242;28;20041;-64
2022/10/23 06:36:04;;;;;;;5.28;2.83;;;;;;;13.42;100.00;99864.50;5099190;28;20023;-65
2022/10/23 06:38:35;;;;;;;6.15;2.80;;;;;;;13.46;100.00;99867.88;5112796;28;20106;-64
2022/10/23 06:41:02;;;;;;;4.78;3.22;;;;;;;13.54;100.00;99876.41;5096266;28;20028;-65
2022/10/23 06:43:27;;;;;;;5.85;3.05;;;;;;;13.63;100.00;99875.97;5103725;28;20024;-64
2022/10/23 06:45:53;;;;;;;5.53;2.88;;;;;;;13.71;100.00;99873.78;5099446;28;20079;-65
2022/10/23 06:48:18;;;;;;;6.63;3.88;;;;;;;13.79;100.00;99872.50;5111106;28;20080;-64
2022/10/23 06:50:44;;;;;;;7.63;4.43;;;;;;;13.92;100.00;99886.16;5113446;28;20451;-65
2022/10/23 06:53:11;;;;;;;7.53;4.95;;;;;;;14.02;100.00;99884.78;5113238;28;20127;-65
2022/10/23 06:55:38;;;;;;;6.45;4.22;;;;;;;14.11;100.00;99873.59;5113019;28;20077;-65
2022/10/23 06:58:09;;;;;;;12.95;4.50;;;;;;;14.16;100.00;99879.59;5110107;28;20027;-65
2022/10/23 07:00:38;;;;;;;6.88;4.00;;;;;;;14.25;100.00;99881.84;5093524;28;20551;-65
2022/10/23 07:03:04;;;;;;;7.68;4.13;;;;;;;14.40;100.00;99883.75;5105589;28;20020;-64
2022/10/23 07:05:31;;;;;;;9.95;3.53;;;;;;;14.64;100.00;99885.22;5112395;28;20028;-64
2022/10/23 07:07:56;;;;;;;8.15;4.82;;;;;;;14.72;100.00;99899.06;5096315;28;20043;-64
2022/10/23 07:10:22;;;;;;;12.18;4.80;;;;;;;14.76;100.00;99899.78;5097040;28;20019;-65
2022/10/23 07:12:47;;;;;;;7.57;4.55;;;;;;;14.77;100.00;99897.03;5102612;28;20080;-65
2022/10/23 07:15:14;;;;;;;8.88;3.35;;;;;;;14.98;100.00;99890.53;5096138;28;20024;-65
2022/10/23 07:17:39;;;;;;;7.03;4.25;;;;;;;15.29;100.00;99873.69;5103097;28;20050;-64
2022/10/23 07:20:05;;;;;;;14.07;8.15;;;;;;;15.85;100.00;99887.56;5104846;28;20028;-65
2022/10/23 07:22:31;;;;;;;12.13;6.65;;;;;;;16.30;100.00;99886.78;5098024;28;20511;-65
2022/10/23 07:24:56;;;;;;;10.15;7.20;;;;;;;17.32;100.00;99880.56;5098463;28;20080;-64
2022/10/23 07:27:22;;;;;;;11.10;6.80;;;;;;;18.34;100.00;99873.91;5096537;28;20110;-65
2022/10/23 07:29:51;;;;;;;8.82;5.40;;;;;;;18.74;95.36;99865.84;5097098;28;20072;-64
2022/10/23 07:32:17;;;;;;;8.85;5.50;;;;;;;18.95;90.46;99870.63;5094927;28;20096;-64
2022/10/23 07:34:42;;;;;;;8.73;5.10;;;;;;;19.31;86.93;99868.09;5093771;28;20475;-65
2022/10/23 07:37:08;;;;;;;9.65;5.75;;;;;;;19.50;84.46;99873.06;5098521;28;20020;-65
2022/10/23 07:39:33;;;;;;;9.30;5.55;;;;;;;19.74;83.08;99865.03;5094617;28;20084;-65
2022/10/23 07:41:59;;;;;;;8.80;4.70;;;;;;;20.53;78.55;99860.88;5097540;28;20027;-65
2022/10/23 07:44:24;;;;;;;12.10;5.70;;;;;;;21.05;73.95;99868.63;5096736;28;20051;-65
2022/10/23 07:46:50;;;;;;;7.10;4.25;;;;;;;22.03;68.32;99869.69;5094965;28;20633;-65
2022/10/23 07:49:15;;;;;;;11.75;4.38;;;;;;;22.21;64.19;99879.00;5097779;28;20266;-65
2022/10/23 07:51:41;;;;;;;6.53;4.38;;;;;;;21.83;66.24;99878.56;5096019;28;20027;-64
2022/10/23 07:54:07;;;;;;;9.27;5.18;;;;;;;21.82;67.98;99887.69;5093280;28;20028;-64
2022/10/23 07:56:32;;;;;;;7.75;4.35;;;;;;;22.24;67.00;99886.88;5096967;28;20039;-65
2022/10/23 07:58:58;;;;;;;5.88;4.60;;;;;;;23.19;64.38;99887.78;5098031;28;20092;-65
2022/10/23 08:01:36;;;;;;;6.45;4.07;;;;;;;24.09;58.39;99886.13;5096162;28;20068;-65
2022/10/23 08:04:02;;;;;;;8.45;4.55;;;;;;;24.77;56.45;99888.88;5095164;28;20035;-65
2022/10/23 08:06:27;;;;;;;8.73;3.65;;;;;;;25.22;54.42;99873.66;5098356;28;20035;-65
2022/10/23 08:08:53;;;;;;;7.68;3.97;;;;;;;25.85;53.02;99900.19;5094240;28;20028;-65
2022/10/23 08:11:25;;;;;;;5.25;2.60;;;;;;;26.20;51.53;99888.59;5098592;28;20172;-65
2022/10/23 08:13:57;;;;;;;4.72;3.05;;;;;;;26.59;49.79;99894.69;5094850;28;20123;-65
2022/10/23 08:16:23;;;;;;;9.30;3.10;;;;;;;27.21;48.51;99895.47;5094357;28;20069;-66
2022/10/23 08:18:50;;;;;;;8.65;3.50;;;;;;;27.92;46.57;99877.06;5094009;28;20233;-65
2022/10/23 08:21:17;;;;;;;5.68;2.92;;;;;;;28.11;45.29;99865.88;5094307;28;20165;-65
2022/10/23 08:23:43;;;;;;;4.85;2.88;;;;;;;27.98;45.86;99870.06;5094418;28;20035;-65
2022/10/23 08:26:10;;;;;;;6.22;2.22;;;;;;;26.60;46.67;99871.81;5093895;28;20039;-65
2022/10/23 08:28:35;;;;;;;5.25;2.60;;;;;;;26.38;50.01;99886.75;5094937;28;20055;-66
2022/10/23 08:31:10;;;;;;;3.70;2.33;;;;;;;27.13;49.30;99900.03;5098348;28;20032;-66
2022/10/23 08:33:36;;;;;;;8.93;2.90;;;;;;;27.52;47.58;99890.47;5094017;28;20035;-65
2022/10/23 08:36:01;;;;;;;5.10;2.50;;;;;;;27.40;47.37;99869.88;5093525;28;20126;-64
2022/10/23 08:38:27;;;;;;;5.78;2.47;;;;;;;26.52;48.90;99878.06;5097305;28;20034;-66
2022/10/23 08:40:52;;;;;;;3.70;1.98;;;;;;;25.53;52.54;99869.78;5099070;28;20073;-65
2022/10/23 08:43:28;;;;;;;7.38;3.22;;;;;;;25.11;55.51;99848.47;5095880;28;20475;-62
2022/10/23 08:46:01;;;;;;;6.20;2.15;;;;;;;24.04;57.82;99859.38;5095689;28;20028;-61
2022/10/23 08:48:31;;;;;;;3.95;2.20;;;;;;;23.89;60.66;99848.97;5099356;28;20094;-61
2022/10/23 08:51:06;;;;;;;5.50;2.20;;;;;;;24.23;59.79;99839.56;5099234;28;20055;-61
2022/10/23 08:53:43;;;;;;;3.25;2.03;;;;;;;25.05;59.14;99828.13;5097108;28;20102;-61
2022/10/23 08:56:17;;;;;;;3.58;2.03;;;;;;;25.67;56.58;99822.97;5097924;28;20044;-61
2022/10/23 08:59:06;;;;;;;6.93;2.22;;;;;;;25.69;55.80;99812.78;5094997;28;20051;-61
2022/10/23 09:01:39;;;;;;;6.45;1.63;;;;;;;25.12;55.22;99807.50;5097079;28;20026;-61
2022/10/23 09:04:05;;;;;;;7.25;2.10;;;;;;;24.70;58.53;99800.66;5095628;28;20122;-61
2022/10/23 09:06:41;;;;;;;3.75;1.83;;;;;;;24.25;59.06;99805.78;5096891;28;20533;-61
2022/10/23 09:09:43;;;;;;;6.65;2.25;;;;;;;23.86;61.79;99803.94;5101125;28;20020;-61
2022/10/23 09:12:15;;;;;;;5.57;2.03;;;;;;;23.61;62.94;99809.03;5094347;28;20103;-62
2022/10/23 09:15:02;;;;;;;4.78;2.20;;;;;;;23.38;64.11;99808.31;5099074;28;20028;-61
2022/10/23 09:17:33;;;;;;;6.07;1.95;;;;;;;23.44;64.95;99807.81;5096454;28;20074;-62
2022/10/23 09:20:11;;;;;;;5.15;2.10;;;;;;;23.72;64.18;99806.19;5094691;28;20671;-61
2022/10/23 09:22:37;;;;;;;3.70;1.75;;;;;;;23.78;65.16;99794.78;5100170;28;20519;-61
2022/10/23 09:25:14;;;;;;;3.40;1.60;;;;;;;24.27;65.16;99792.03;5099401;28;20046;-61
2022/10/23 09:27:49;;;;;;;6.72;2.08;;;;;;;24.82;61.41;99791.38;5095823;28;20028;-62
2022/10/23 09:30:35;;;;;;;4.47;1.77;;;;;;;24.86;60.35;99784.59;5100638;28;20077;-62
2022/10/23 09:33:17;;;;;;;5.90;1.70;;;;;;;24.89;61.41;99778.91;5097208;28;20504;-61
2022/10/23 09:35:55;;;;;;;6.97;2.13;;;;;;;25.24;59.57;99778.25;5095806;28;20070;-62
2022/10/23 09:38:32;;;;;;;3.67;1.50;;;;;;;25.55;57.10;99790.63;5099617;28;20046;-62
2022/10/23 09:41:04;;;;;;;2.58;1.58;;;;;;;25.52;56.17;99794.50;5092940;28;20020;-62
2022/10/23 09:43:30;;;;;;;3.03;1.70;;;;;;;25.45;56.19;99793.38;5096974;28;20063;-61
2022/10/23 09:45:58;;;;;;;4.40;1.77;;;;;;;25.77;55.50;99784.75;5096237;28;20792;-62
2022/10/23 09:48:24;;;;;;;4.50;1.33;;;;;;;25.77;54.86;99791.09;5096867;28;20092;-62
2022/10/23 09:50:54;;;;;;;6.97;1.55;;;;;;;25.79;56.41;99802.69;5095156;28;20769;-62
2022/10/23 09:53:39;;;;;;;5.25;1.55;;;;;;;25.74;54.94;99802.28;5094548;28;20104;-62
2022/10/23 09:56:19;;;;;;;2.88;1.27;;;;;;;25.55;55.09;99796.91;5096830;28;20547;-62
2022/10/23 09:58:55;;;;;;;2.92;1.10;;;;;;;25.59;55.89;99778.41;5093550;28;20036;-62
2022/10/23 10:01:31;;;;;;;2.33;1.35;;;;;;;25.85;55.60;99774.81;5093412;28;20050;-62
2022/10/23 10:03:57;;;;;;;4.68;1.33;;;;;;;26.39;52.52;99778.53;5093056;28;20105;-62
2022/10/23 10:06:26;;;;;;;9.52;1.70;;;;;;;26.96;52.66;99769.81;5093068;28;20032;-62
2022/10/23 10:08:57;;;;;;;2.55;1.23;;;;;;;26.97;50.37;99760.59;5095565;28;20050;-62
2022/10/23 10:11:34;;;;;;;5.65;1.25;;;;;;;26.97;48.46;99746.94;5093314;28;20755;-62
2022/10/23 10:14:32;;;;;;;2.05;0.93;;;;;;;26.62;49.76;99753.31;5095451;28;20178;-62
2022/10/23 10:17:05;;;;;;;3.13;1.20;;;;;;;26.53;52.47;99764.31;5094388;28;20038;-62
2022/10/23 10:19:37;;;;;;;2.65;1.17;;;;;;;26.29;50.83;99764.09;5094491;28;20060;-62
2022/10/23 10:22:27;;;;;;;6.57;1.65;;;;;;;26.27;52.89;99768.84;5096542;28;20028;-62
2022/10/23 10:25:07;;;;;;;3.45;1.10;;;;;;;26.20;53.24;99771.31;5094986;28;20093;-62
2022/10/23 10:28:07;;;;;;;4.30;1.00;;;;;;;25.98;52.26;99776.34;5092821;28;20106;-62
2022/10/23 10:30:58;;;;;;;2.88;0.77;;;;;;;25.26;56.19;99771.63;5092804;28;20024;-62
2022/10/23 10:33:36;;;;;;;4.40;1.33;;;;;;;24.52;59.37;99753.41;5099207;28;20023;-63
2022/10/23 10:36:17;;;;;;;2.80;1.42;;;;;;;23.95;62.96;99747.91;5097386;28;20032;-62
2022/10/23 10:38:58;;;;;;;1.60;1.05;;;;;;;23.51;60.96;99753.81;5095225;28;20394;-62
2022/10/23 10:41:27;;;;;;;5.47;1.35;;;;;;;23.06;62.76;99754.13;5104761;28;20428;-62
2022/10/23 10:44:17;;;;;;;4.65;1.50;;;;;;;22.85;65.23;99747.88;5097566;28;20026;-62
2022/10/23 10:47:12;;;;;;;3.05;1.20;;;;;;;22.68;65.27;99743.06;5098555;28;20074;-62
2022/10/23 10:49:58;;;;;;;3.28;1.17;;;;;;;22.50;66.90;99738.34;5094385;28;20031;-62
2022/10/23 10:52:42;;;;;;;2.70;1.00;;;;;;;22.60;66.83;99734.72;5095333;28;20032;-62
2022/10/23 10:55:31;;;;;;;2.30;1.30;;;;;;;22.67;68.23;99732.38;5094182;28;20063;-62
2022/10/23 10:58:09;;;;;;;1.60;0.98;;;;;;;22.77;67.75;99725.13;5098333;28;20095;-62
2022/10/23 11:00:35;;;;;;;3.88;1.30;;;;;;;22.78;69.58;99722.31;5093939;28;20051;-62
2022/10/23 11:03:21;;;;;;;6.07;1.60;;;;;;;23.08;70.11;99714.16;5095645;28;20369;-62
2022/10/23 11:05:49;;;;;;;4.00;1.38;;;;;;;23.58;67.32;99714.22;5092596;28;20100;-62
2022/10/23 11:08:37;;;;;;;4.15;1.30;;;;;;;23.99;65.41;99708.59;5096951;28;20028;-62
2022/10/23 11:11:16;;;;;;;4.18;1.30;;;;;;;24.39;64.38;99717.50;5098374;28;20027;-62
2022/10/23 11:13:43;;;;;;;5.85;1.65;;;;;;;24.68;63.18;99715.63;5094311;28;20034;-62
2022/10/23 11:16:16;;;;;;;4.32;1.13;;;;;;;24.99;58.83;99710.84;5094505;28;20366;-62
2022/10/23 11:18:45;;;;;;;3.13;1.08;;;;;;;25.17;60.14;99707.16;5092182;28;20833;-63
2022/10/23 11:21:36;;;;;;;5.25;1.38;;;;;;;25.21;59.93;99692.25;5093084;28;20474;-62
2022/10/23 11:24:17;;;;;;;3.42;1.13;;;;;;;25.34;59.36;99687.31;5053157;28;20383;-62
2022/10/23 11:27:10;;;;;;;5.95;1.20;;;;;;;25.57;58.04;99687.78;5094522;28;20031;-62
2022/10/23 11:29:55;;;;;;;2.88;1.17;;;;;;;25.72;59.53;99692.59;5093850;28;20035;-62
2022/10/23 11:32:48;;;;;;;3.50;1.23;;;;;;;25.83;56.96;99683.34;5095187;28;20041;-63
2022/10/23 11:35:22;;;;;;;2.33;0.95;;;;;;;25.36;59.31;99669.00;5090490;28;20032;-62
2022/10/23 11:38:07;;;;;;;3.65;1.10;;;;;;;25.09;60.83;99676.28;5092377;28;20032;-63
2022/10/23 11:40:32;;;;;;;13.63;1.40;;;;;;;24.94;61.82;99683.19;5094598;28;20046;-62
2022/10/23 11:42:58;;;;;;;4.63;1.38;;;;;;;24.68;62.59;99683.84;5094910;28;20019;-63
2022/10/23 11:45:29;;;;;;;2.28;0.80;;;;;;;24.53;64.09;99678.97;5094698;28;20016;-62